Pagina principale
METAR-TAF:

METAR-TAF

Aeroporti :

Houston, Texas, Stati Uniti

latitudine: 29-38-15N, longitudine: 095-16-57W, altezza: 14 m

Osservazione

Il bollettino è stato emesso 37 minuti fa, alle 13:53 UTC
Vento 11 kt da est/nord-est
Temperature 17°C
Umidità 59%
Pressione 1025 hPa
Visibilità: 16.1 km
Poco nuvoloso ad un'altezza di 25000 ft

METAR: KHOU 261353Z 06011KT 10SM FEW250 17/09 A3027 RMK AO2 SLP256 T01670089

Ora: 09:30 (14:30 UTC)

Previsione

Il bollettino è stato emesso 3 ore e 10 minuti fa, alle 11:20 UTC
Previsione valida dal 26 alle 12 UTC al 27 alle 12 UTC
Vento 12 kt da nord-est
Visibilità: 10 km
Cielo sereno
A partire da 27 alle 0100 UTC
Vento 4 kt da est/nord-est
Visibilità: 10 km
Nubi sparse ad un'altezza di 25000 ft

TAF: KHOU 261120Z 2612/2712 04012KT P6SM SKC FM270100 07004KT P6SM SCT250

Osservazioni e previsioni meteorologiche di più di 4000 aeroporti (messaggi METAR e TAF).

Le stazioni disponibili sono rappresentate dai dischi gialli e rossi sulla carta.

Puntare il mouse per vedere il nome della stazione.

Clicca sopra per visualizzare le osservazioni e previsioni meteorologiche.

Per cambiare la mappa : fare clic sui pulsanti verdi con una croce nera per ingrandire, il pulsante verde con un trattino per diminuire, o sulla freccia verde per le mappe adiacenti.


METAR-TAF: